sensor_id;sensor_type;location;lat;lon;timestamp;P1;durP1;ratioP1;P2;durP2;ratioP2
24335;SDS011;75016;52.400;16.880;2024-03-02T00:01:07;61.80;;;42.40;;
24335;SDS011;75016;52.400;16.880;2024-03-02T00:03:45;66.80;;;43.90;;
24335;SDS011;75016;52.400;16.880;2024-03-02T00:06:11;68.60;;;43.70;;
24335;SDS011;75016;52.400;16.880;2024-03-02T00:08:38;68.00;;;43.90;;
24335;SDS011;75016;52.400;16.880;2024-03-02T00:11:05;67.30;;;44.60;;
24335;SDS011;75016;52.400;16.880;2024-03-02T00:13:32;66.10;;;43.00;;
24335;SDS011;75016;52.400;16.880;2024-03-02T00:15:59;63.50;;;42.90;;
24335;SDS011;75016;52.400;16.880;2024-03-02T00:18:27;66.70;;;44.10;;
24335;SDS011;75016;52.400;16.880;2024-03-02T00:20:57;68.70;;;43.50;;
24335;SDS011;75016;52.400;16.880;2024-03-02T00:23:29;65.00;;;43.90;;
24335;SDS011;75016;52.400;16.880;2024-03-02T00:25:57;68.70;;;44.10;;
24335;SDS011;75016;52.400;16.880;2024-03-02T00:28:25;64.20;;;43.40;;
24335;SDS011;75016;52.400;16.880;2024-03-02T00:31:03;65.40;;;43.80;;
24335;SDS011;75016;52.400;16.880;2024-03-02T00:33:33;69.40;;;44.20;;
24335;SDS011;75016;52.400;16.880;2024-03-02T00:36:01;71.20;;;44.60;;
24335;SDS011;75016;52.400;16.880;2024-03-02T00:38:32;66.30;;;44.40;;
24335;SDS011;75016;52.400;16.880;2024-03-02T00:41:04;69.70;;;44.80;;
24335;SDS011;75016;52.400;16.880;2024-03-02T00:46:20;72.60;;;45.50;;
24335;SDS011;75016;52.400;16.880;2024-03-02T00:48:48;71.60;;;44.90;;
24335;SDS011;75016;52.400;16.880;2024-03-02T00:51:25;72.70;;;45.90;;
24335;SDS011;75016;52.400;16.880;2024-03-02T00:53:54;75.30;;;46.50;;
24335;SDS011;75016;52.400;16.880;2024-03-02T00:56:23;71.60;;;46.30;;
24335;SDS011;75016;52.400;16.880;2024-03-02T00:58:50;75.70;;;47.40;;
24335;SDS011;75016;52.400;16.880;2024-03-02T01:01:18;76.40;;;47.60;;
24335;SDS011;75016;52.400;16.880;2024-03-02T01:03:48;72.30;;;46.30;;
24335;SDS011;75016;52.400;16.880;2024-03-02T01:06:15;71.70;;;44.90;;
24335;SDS011;75016;52.400;16.880;2024-03-02T01:08:43;79.20;;;47.50;;
24335;SDS011;75016;52.400;16.880;2024-03-02T01:11:10;77.90;;;47.60;;
24335;SDS011;75016;52.400;16.880;2024-03-02T01:13:36;74.10;;;46.80;;
24335;SDS011;75016;52.400;16.880;2024-03-02T01:16:03;76.30;;;47.10;;
24335;SDS011;75016;52.400;16.880;2024-03-02T01:18:30;75.50;;;47.00;;
24335;SDS011;75016;52.400;16.880;2024-03-02T01:20:57;78.00;;;48.10;;
24335;SDS011;75016;52.400;16.880;2024-03-02T01:23:24;70.60;;;46.40;;
24335;SDS011;75016;52.400;16.880;2024-03-02T01:25:51;71.90;;;45.30;;
24335;SDS011;75016;52.400;16.880;2024-03-02T01:28:18;73.90;;;45.50;;
24335;SDS011;75016;52.400;16.880;2024-03-02T01:30:47;71.60;;;45.10;;
24335;SDS011;75016;52.400;16.880;2024-03-02T01:33:16;74.70;;;46.20;;
24335;SDS011;75016;52.400;16.880;2024-03-02T01:35:43;71.70;;;45.40;;
24335;SDS011;75016;52.400;16.880;2024-03-02T01:38:09;69.40;;;43.90;;
24335;SDS011;75016;52.400;16.880;2024-03-02T01:40:36;74.90;;;45.30;;
24335;SDS011;75016;52.400;16.880;2024-03-02T01:43:04;74.00;;;45.00;;
24335;SDS011;75016;52.400;16.880;2024-03-02T01:45:31;72.00;;;45.00;;
24335;SDS011;75016;52.400;16.880;2024-03-02T01:47:58;72.00;;;45.20;;
24335;SDS011;75016;52.400;16.880;2024-03-02T01:50:26;71.80;;;45.20;;
24335;SDS011;75016;52.400;16.880;2024-03-02T01:53:00;72.50;;;45.70;;
24335;SDS011;75016;52.400;16.880;2024-03-02T01:55:27;69.50;;;44.70;;
24335;SDS011;75016;52.400;16.880;2024-03-02T01:57:56;71.80;;;44.80;;
24335;SDS011;75016;52.400;16.880;2024-03-02T02:00:24;70.00;;;44.60;;
24335;SDS011;75016;52.400;16.880;2024-03-02T02:02:52;73.90;;;44.20;;
24335;SDS011;75016;52.400;16.880;2024-03-02T02:05:19;67.60;;;42.40;;
24335;SDS011;75016;52.400;16.880;2024-03-02T02:07:46;72.40;;;44.20;;
24335;SDS011;75016;52.400;16.880;2024-03-02T02:10:12;71.60;;;44.10;;
24335;SDS011;75016;52.400;16.880;2024-03-02T02:12:39;68.50;;;44.20;;
24335;SDS011;75016;52.400;16.880;2024-03-02T02:17:56;70.60;;;43.10;;
24335;SDS011;75016;52.400;16.880;2024-03-02T02:20:24;65.70;;;41.20;;
24335;SDS011;75016;52.400;16.880;2024-03-02T02:25:28;66.60;;;41.40;;
24335;SDS011;75016;52.400;16.880;2024-03-02T02:27:55;65.10;;;40.40;;
24335;SDS011;75016;52.400;16.880;2024-03-02T02:30:23;59.80;;;38.40;;
24335;SDS011;75016;52.400;16.880;2024-03-02T02:32:51;62.50;;;39.60;;
24335;SDS011;75016;52.400;16.880;2024-03-02T02:35:18;60.70;;;39.60;;
24335;SDS011;75016;52.400;16.880;2024-03-02T02:37:47;58.40;;;38.10;;
24335;SDS011;75016;52.400;16.880;2024-03-02T02:40:15;61.80;;;38.10;;
24335;SDS011;75016;52.400;16.880;2024-03-02T02:42:42;58.40;;;36.50;;
24335;SDS011;75016;52.400;16.880;2024-03-02T02:45:09;62.40;;;39.00;;
24335;SDS011;75016;52.400;16.880;2024-03-02T02:47:37;60.20;;;37.70;;
24335;SDS011;75016;52.400;16.880;2024-03-02T02:50:04;56.70;;;36.10;;
24335;SDS011;75016;52.400;16.880;2024-03-02T02:52:35;56.60;;;36.60;;
24335;SDS011;75016;52.400;16.880;2024-03-02T02:55:03;56.60;;;35.90;;
24335;SDS011;75016;52.400;16.880;2024-03-02T02:57:37;60.00;;;36.40;;
24335;SDS011;75016;52.400;16.880;2024-03-02T03:00:06;56.10;;;34.10;;
24335;SDS011;75016;52.400;16.880;2024-03-02T03:02:42;60.10;;;35.00;;
24335;SDS011;75016;52.400;16.880;2024-03-02T03:05:11;55.30;;;33.90;;
24335;SDS011;75016;52.400;16.880;2024-03-02T03:07:39;59.80;;;36.60;;
24335;SDS011;75016;52.400;16.880;2024-03-02T03:10:06;54.20;;;33.40;;
24335;SDS011;75016;52.400;16.880;2024-03-02T03:12:34;54.60;;;34.20;;
24335;SDS011;75016;52.400;16.880;2024-03-02T03:15:01;56.30;;;34.10;;
24335;SDS011;75016;52.400;16.880;2024-03-02T03:17:29;54.20;;;34.30;;
24335;SDS011;75016;52.400;16.880;2024-03-02T03:19:55;59.50;;;35.80;;
24335;SDS011;75016;52.400;16.880;2024-03-02T03:22:22;57.80;;;34.30;;
24335;SDS011;75016;52.400;16.880;2024-03-02T03:24:49;52.50;;;33.40;;
24335;SDS011;75016;52.400;16.880;2024-03-02T03:27:15;58.10;;;33.30;;
24335;SDS011;75016;52.400;16.880;2024-03-02T03:29:42;54.60;;;33.30;;
24335;SDS011;75016;52.400;16.880;2024-03-02T03:32:09;54.70;;;33.30;;
24335;SDS011;75016;52.400;16.880;2024-03-02T03:34:35;50.50;;;31.10;;
24335;SDS011;75016;52.400;16.880;2024-03-02T03:37:02;48.20;;;31.40;;
24335;SDS011;75016;52.400;16.880;2024-03-02T03:39:29;58.30;;;34.10;;
24335;SDS011;75016;52.400;16.880;2024-03-02T03:41:55;54.20;;;34.10;;
24335;SDS011;75016;52.400;16.880;2024-03-02T03:44:22;49.10;;;32.00;;
24335;SDS011;75016;52.400;16.880;2024-03-02T03:46:48;49.70;;;31.80;;
24335;SDS011;75016;52.400;16.880;2024-03-02T03:49:15;51.60;;;32.50;;
24335;SDS011;75016;52.400;16.880;2024-03-02T03:51:42;52.50;;;32.70;;
24335;SDS011;75016;52.400;16.880;2024-03-02T03:54:08;52.20;;;32.50;;
24335;SDS011;75016;52.400;16.880;2024-03-02T03:56:37;52.00;;;32.10;;
24335;SDS011;75016;52.400;16.880;2024-03-02T03:59:04;53.30;;;31.50;;
24335;SDS011;75016;52.400;16.880;2024-03-02T04:01:31;51.80;;;31.50;;
24335;SDS011;75016;52.400;16.880;2024-03-02T04:03:57;50.20;;;32.90;;
24335;SDS011;75016;52.400;16.880;2024-03-02T04:06:24;50.70;;;31.30;;
24335;SDS011;75016;52.400;16.880;2024-03-02T04:08:51;54.70;;;32.10;;
24335;SDS011;75016;52.400;16.880;2024-03-02T04:11:18;49.40;;;31.80;;
24335;SDS011;75016;52.400;16.880;2024-03-02T04:13:44;53.50;;;31.90;;
24335;SDS011;75016;52.400;16.880;2024-03-02T04:16:11;53.60;;;32.10;;
24335;SDS011;75016;52.400;16.880;2024-03-02T04:18:38;50.50;;;32.40;;
24335;SDS011;75016;52.400;16.880;2024-03-02T04:21:05;53.30;;;33.20;;
24335;SDS011;75016;52.400;16.880;2024-03-02T04:23:32;47.30;;;31.00;;
24335;SDS011;75016;52.400;16.880;2024-03-02T04:25:59;51.40;;;31.70;;
24335;SDS011;75016;52.400;16.880;2024-03-02T04:28:25;56.50;;;32.50;;
24335;SDS011;75016;52.400;16.880;2024-03-02T04:30:52;50.90;;;31.30;;
24335;SDS011;75016;52.400;16.880;2024-03-02T04:33:18;47.60;;;29.70;;
24335;SDS011;75016;52.400;16.880;2024-03-02T04:35:44;52.20;;;29.90;;
24335;SDS011;75016;52.400;16.880;2024-03-02T04:38:12;51.80;;;31.80;;
24335;SDS011;75016;52.400;16.880;2024-03-02T04:40:39;48.80;;;31.60;;
24335;SDS011;75016;52.400;16.880;2024-03-02T04:43:05;50.10;;;31.50;;
24335;SDS011;75016;52.400;16.880;2024-03-02T04:45:32;52.50;;;31.80;;
24335;SDS011;75016;52.400;16.880;2024-03-02T04:47:58;52.40;;;32.10;;
24335;SDS011;75016;52.400;16.880;2024-03-02T04:50:25;51.10;;;31.10;;
24335;SDS011;75016;52.400;16.880;2024-03-02T04:52:51;47.00;;;30.80;;
24335;SDS011;75016;52.400;16.880;2024-03-02T04:55:18;52.90;;;32.00;;
24335;SDS011;75016;52.400;16.880;2024-03-02T04:57:53;48.60;;;31.40;;
24335;SDS011;75016;52.400;16.880;2024-03-02T05:00:22;51.30;;;32.80;;
24335;SDS011;75016;52.400;16.880;2024-03-02T05:02:49;47.60;;;29.40;;
24335;SDS011;75016;52.400;16.880;2024-03-02T05:05:16;49.00;;;31.80;;
24335;SDS011;75016;52.400;16.880;2024-03-02T05:07:43;47.70;;;31.70;;
24335;SDS011;75016;52.400;16.880;2024-03-02T05:10:10;52.10;;;31.00;;
24335;SDS011;75016;52.400;16.880;2024-03-02T05:12:40;49.00;;;31.20;;
24335;SDS011;75016;52.400;16.880;2024-03-02T05:15:10;51.00;;;31.60;;
24335;SDS011;75016;52.400;16.880;2024-03-02T05:17:38;50.30;;;30.70;;
24335;SDS011;75016;52.400;16.880;2024-03-02T05:20:05;46.10;;;31.00;;
24335;SDS011;75016;52.400;16.880;2024-03-02T05:22:36;50.60;;;30.40;;
24335;SDS011;75016;52.400;16.880;2024-03-02T05:25:03;48.50;;;30.30;;
24335;SDS011;75016;52.400;16.880;2024-03-02T05:27:31;51.80;;;30.80;;
24335;SDS011;75016;52.400;16.880;2024-03-02T05:29:59;47.80;;;30.00;;
24335;SDS011;75016;52.400;16.880;2024-03-02T05:32:26;49.20;;;30.90;;
24335;SDS011;75016;52.400;16.880;2024-03-02T05:34:52;45.90;;;29.30;;
24335;SDS011;75016;52.400;16.880;2024-03-02T05:37:19;51.90;;;31.70;;
24335;SDS011;75016;52.400;16.880;2024-03-02T05:39:46;52.90;;;31.90;;
24335;SDS011;75016;52.400;16.880;2024-03-02T05:42:12;49.30;;;31.30;;
24335;SDS011;75016;52.400;16.880;2024-03-02T05:44:39;45.90;;;30.10;;
24335;SDS011;75016;52.400;16.880;2024-03-02T05:47:05;48.50;;;31.00;;
24335;SDS011;75016;52.400;16.880;2024-03-02T05:49:35;46.10;;;29.40;;
24335;SDS011;75016;52.400;16.880;2024-03-02T05:52:01;49.30;;;32.50;;
24335;SDS011;75016;52.400;16.880;2024-03-02T05:54:29;48.30;;;30.80;;
24335;SDS011;75016;52.400;16.880;2024-03-02T05:56:55;50.60;;;30.90;;
24335;SDS011;75016;52.400;16.880;2024-03-02T05:59:22;49.20;;;31.10;;
24335;SDS011;75016;52.400;16.880;2024-03-02T06:01:48;53.80;;;29.70;;
24335;SDS011;75016;52.400;16.880;2024-03-02T06:04:18;47.80;;;31.00;;
24335;SDS011;75016;52.400;16.880;2024-03-02T06:06:44;46.60;;;30.20;;
24335;SDS011;75016;52.400;16.880;2024-03-02T06:09:11;48.80;;;29.90;;
24335;SDS011;75016;52.400;16.880;2024-03-02T06:11:42;51.70;;;32.50;;
24335;SDS011;75016;52.400;16.880;2024-03-02T06:14:08;49.20;;;30.40;;
24335;SDS011;75016;52.400;16.880;2024-03-02T06:16:35;45.90;;;29.80;;
24335;SDS011;75016;52.400;16.880;2024-03-02T06:19:02;47.10;;;31.00;;
24335;SDS011;75016;52.400;16.880;2024-03-02T06:21:28;49.30;;;31.50;;
24335;SDS011;75016;52.400;16.880;2024-03-02T06:23:55;50.90;;;30.70;;
24335;SDS011;75016;52.400;16.880;2024-03-02T06:26:22;49.50;;;30.90;;
24335;SDS011;75016;52.400;16.880;2024-03-02T06:28:49;48.80;;;31.00;;
24335;SDS011;75016;52.400;16.880;2024-03-02T06:31:16;46.00;;;30.20;;
24335;SDS011;75016;52.400;16.880;2024-03-02T06:33:42;49.20;;;32.00;;
24335;SDS011;75016;52.400;16.880;2024-03-02T06:36:09;51.30;;;30.50;;
24335;SDS011;75016;52.400;16.880;2024-03-02T06:38:35;46.70;;;30.30;;
24335;SDS011;75016;52.400;16.880;2024-03-02T06:41:02;48.30;;;30.40;;
24335;SDS011;75016;52.400;16.880;2024-03-02T06:43:29;50.50;;;30.70;;
24335;SDS011;75016;52.400;16.880;2024-03-02T06:45:55;47.00;;;30.60;;
24335;SDS011;75016;52.400;16.880;2024-03-02T06:48:22;50.40;;;30.30;;
24335;SDS011;75016;52.400;16.880;2024-03-02T06:50:49;53.10;;;31.20;;
24335;SDS011;75016;52.400;16.880;2024-03-02T06:53:16;47.70;;;30.50;;
24335;SDS011;75016;52.400;16.880;2024-03-02T06:55:44;49.80;;;30.80;;
24335;SDS011;75016;52.400;16.880;2024-03-02T06:58:13;48.90;;;31.10;;
24335;SDS011;75016;52.400;16.880;2024-03-02T07:00:41;47.40;;;30.30;;
24335;SDS011;75016;52.400;16.880;2024-03-02T07:03:08;49.00;;;30.20;;
24335;SDS011;75016;52.400;16.880;2024-03-02T07:05:36;48.80;;;29.50;;
24335;SDS011;75016;52.400;16.880;2024-03-02T07:08:03;47.20;;;30.00;;
24335;SDS011;75016;52.400;16.880;2024-03-02T07:10:32;48.70;;;30.00;;
24335;SDS011;75016;52.400;16.880;2024-03-02T07:12:59;46.30;;;29.50;;
24335;SDS011;75016;52.400;16.880;2024-03-02T07:15:25;44.50;;;29.60;;
24335;SDS011;75016;52.400;16.880;2024-03-02T07:17:55;49.30;;;30.30;;
24335;SDS011;75016;52.400;16.880;2024-03-02T07:20:21;45.40;;;29.60;;
24335;SDS011;75016;52.400;16.880;2024-03-02T07:22:48;43.20;;;30.20;;
24335;SDS011;75016;52.400;16.880;2024-03-02T07:25:15;46.30;;;29.70;;
24335;SDS011;75016;52.400;16.880;2024-03-02T07:27:41;45.50;;;29.40;;
24335;SDS011;75016;52.400;16.880;2024-03-02T07:30:09;46.70;;;30.10;;
24335;SDS011;75016;52.400;16.880;2024-03-02T07:32:37;48.30;;;30.20;;
24335;SDS011;75016;52.400;16.880;2024-03-02T07:35:04;45.40;;;30.50;;
24335;SDS011;75016;52.400;16.880;2024-03-02T07:37:31;44.50;;;29.70;;
24335;SDS011;75016;52.400;16.880;2024-03-02T07:39:57;46.00;;;29.50;;
24335;SDS011;75016;52.400;16.880;2024-03-02T07:42:24;43.80;;;29.80;;
24335;SDS011;75016;52.400;16.880;2024-03-02T07:44:50;45.70;;;29.80;;
24335;SDS011;75016;52.400;16.880;2024-03-02T07:47:17;44.90;;;30.00;;
24335;SDS011;75016;52.400;16.880;2024-03-02T07:49:44;44.20;;;29.10;;
24335;SDS011;75016;52.400;16.880;2024-03-02T07:52:12;43.40;;;29.40;;
24335;SDS011;75016;52.400;16.880;2024-03-02T07:54:39;48.60;;;30.80;;
24335;SDS011;75016;52.400;16.880;2024-03-02T07:57:05;48.60;;;30.80;;
24335;SDS011;75016;52.400;16.880;2024-03-02T07:59:32;47.20;;;29.70;;
24335;SDS011;75016;52.400;16.880;2024-03-02T08:01:58;45.90;;;31.90;;
24335;SDS011;75016;52.400;16.880;2024-03-02T08:04:25;47.50;;;29.50;;
24335;SDS011;75016;52.400;16.880;2024-03-02T08:06:52;43.30;;;28.50;;
24335;SDS011;75016;52.400;16.880;2024-03-02T08:09:18;44.70;;;29.90;;
24335;SDS011;75016;52.400;16.880;2024-03-02T08:11:46;42.20;;;29.00;;
24335;SDS011;75016;52.400;16.880;2024-03-02T08:14:14;44.80;;;27.50;;
24335;SDS011;75016;52.400;16.880;2024-03-02T08:16:40;44.50;;;29.60;;
24335;SDS011;75016;52.400;16.880;2024-03-02T08:19:07;45.40;;;27.90;;
24335;SDS011;75016;52.400;16.880;2024-03-02T08:21:35;45.00;;;28.90;;
24335;SDS011;75016;52.400;16.880;2024-03-02T08:24:02;45.70;;;28.40;;
24335;SDS011;75016;52.400;16.880;2024-03-02T08:26:28;44.80;;;28.50;;
24335;SDS011;75016;52.400;16.880;2024-03-02T08:29:00;42.70;;;27.80;;
24335;SDS011;75016;52.400;16.880;2024-03-02T08:31:30;43.40;;;27.90;;
24335;SDS011;75016;52.400;16.880;2024-03-02T08:33:57;43.60;;;28.70;;
24335;SDS011;75016;52.400;16.880;2024-03-02T08:36:23;45.20;;;28.30;;
24335;SDS011;75016;52.400;16.880;2024-03-02T08:38:50;46.80;;;29.20;;
24335;SDS011;75016;52.400;16.880;2024-03-02T08:41:16;43.60;;;29.30;;
24335;SDS011;75016;52.400;16.880;2024-03-02T08:43:43;44.00;;;28.50;;
24335;SDS011;75016;52.400;16.880;2024-03-02T08:46:10;44.20;;;28.20;;
24335;SDS011;75016;52.400;16.880;2024-03-02T08:48:37;42.40;;;27.40;;
24335;SDS011;75016;52.400;16.880;2024-03-02T08:51:03;43.10;;;28.10;;
24335;SDS011;75016;52.400;16.880;2024-03-02T08:53:32;44.20;;;28.40;;
24335;SDS011;75016;52.400;16.880;2024-03-02T08:55:58;44.50;;;28.30;;
24335;SDS011;75016;52.400;16.880;2024-03-02T08:58:25;43.80;;;27.30;;
24335;SDS011;75016;52.400;16.880;2024-03-02T09:00:52;43.30;;;27.80;;
24335;SDS011;75016;52.400;16.880;2024-03-02T09:03:18;41.40;;;27.40;;
24335;SDS011;75016;52.400;16.880;2024-03-02T09:05:45;42.90;;;28.50;;
24335;SDS011;75016;52.400;16.880;2024-03-02T09:08:12;39.40;;;27.30;;
24335;SDS011;75016;52.400;16.880;2024-03-02T09:10:38;43.70;;;28.50;;
24335;SDS011;75016;52.400;16.880;2024-03-02T09:13:06;39.80;;;27.20;;
24335;SDS011;75016;52.400;16.880;2024-03-02T09:15:33;41.00;;;27.00;;
24335;SDS011;75016;52.400;16.880;2024-03-02T09:18:03;38.20;;;26.80;;
24335;SDS011;75016;52.400;16.880;2024-03-02T09:20:30;39.70;;;26.30;;
24335;SDS011;75016;52.400;16.880;2024-03-02T09:22:57;38.00;;;25.80;;
24335;SDS011;75016;52.400;16.880;2024-03-02T09:25:23;40.60;;;26.90;;
24335;SDS011;75016;52.400;16.880;2024-03-02T09:27:50;39.30;;;25.60;;
24335;SDS011;75016;52.400;16.880;2024-03-02T09:30:16;36.40;;;25.10;;
24335;SDS011;75016;52.400;16.880;2024-03-02T09:32:43;37.00;;;24.90;;
24335;SDS011;75016;52.400;16.880;2024-03-02T09:35:09;42.30;;;25.70;;
24335;SDS011;75016;52.400;16.880;2024-03-02T09:37:36;38.30;;;25.50;;
24335;SDS011;75016;52.400;16.880;2024-03-02T09:40:02;39.60;;;25.30;;
24335;SDS011;75016;52.400;16.880;2024-03-02T09:42:29;42.60;;;25.00;;
24335;SDS011;75016;52.400;16.880;2024-03-02T09:44:56;40.00;;;25.10;;
24335;SDS011;75016;52.400;16.880;2024-03-02T09:47:23;39.20;;;25.70;;
24335;SDS011;75016;52.400;16.880;2024-03-02T09:49:50;40.60;;;25.50;;
24335;SDS011;75016;52.400;16.880;2024-03-02T09:52:16;39.90;;;25.30;;
24335;SDS011;75016;52.400;16.880;2024-03-02T09:54:43;36.20;;;26.00;;
24335;SDS011;75016;52.400;16.880;2024-03-02T09:57:10;39.70;;;26.80;;
24335;SDS011;75016;52.400;16.880;2024-03-02T09:59:36;43.20;;;27.20;;
24335;SDS011;75016;52.400;16.880;2024-03-02T10:02:03;41.80;;;26.90;;
24335;SDS011;75016;52.400;16.880;2024-03-02T10:04:30;41.40;;;26.70;;
24335;SDS011;75016;52.400;16.880;2024-03-02T10:07:12;36.60;;;27.40;;
24335;SDS011;75016;52.400;16.880;2024-03-02T10:09:41;37.50;;;26.80;;
24335;SDS011;75016;52.400;16.880;2024-03-02T10:12:09;39.60;;;26.50;;
24335;SDS011;75016;52.400;16.880;2024-03-02T10:14:38;40.90;;;27.50;;
24335;SDS011;75016;52.400;16.880;2024-03-02T10:17:06;38.80;;;27.10;;
24335;SDS011;75016;52.400;16.880;2024-03-02T10:19:34;39.10;;;26.50;;
24335;SDS011;75016;52.400;16.880;2024-03-02T10:22:06;38.20;;;26.50;;
24335;SDS011;75016;52.400;16.880;2024-03-02T10:24:38;38.60;;;26.00;;
24335;SDS011;75016;52.400;16.880;2024-03-02T10:27:09;37.60;;;26.60;;
24335;SDS011;75016;52.400;16.880;2024-03-02T10:29:57;35.10;;;25.50;;
24335;SDS011;75016;52.400;16.880;2024-03-02T10:32:24;39.30;;;27.00;;
24335;SDS011;75016;52.400;16.880;2024-03-02T10:34:50;35.50;;;26.30;;
24335;SDS011;75016;52.400;16.880;2024-03-02T10:37:17;39.10;;;25.80;;
24335;SDS011;75016;52.400;16.880;2024-03-02T10:39:43;37.80;;;24.90;;
24335;SDS011;75016;52.400;16.880;2024-03-02T10:42:12;37.00;;;24.90;;
24335;SDS011;75016;52.400;16.880;2024-03-02T10:44:40;40.10;;;26.50;;
24335;SDS011;75016;52.400;16.880;2024-03-02T10:47:07;36.50;;;25.50;;
24335;SDS011;75016;52.400;16.880;2024-03-02T10:49:35;37.30;;;26.20;;
24335;SDS011;75016;52.400;16.880;2024-03-02T10:52:04;33.60;;;25.30;;
24335;SDS011;75016;52.400;16.880;2024-03-02T10:54:31;34.10;;;24.50;;
24335;SDS011;75016;52.400;16.880;2024-03-02T10:57:02;36.10;;;25.80;;
24335;SDS011;75016;52.400;16.880;2024-03-02T10:59:37;36.30;;;24.60;;
24335;SDS011;75016;52.400;16.880;2024-03-02T11:02:17;36.10;;;25.60;;
24335;SDS011;75016;52.400;16.880;2024-03-02T11:04:47;36.00;;;25.30;;
24335;SDS011;75016;52.400;16.880;2024-03-02T11:07:16;36.20;;;24.50;;
24335;SDS011;75016;52.400;16.880;2024-03-02T11:09:49;36.00;;;24.40;;
24335;SDS011;75016;52.400;16.880;2024-03-02T11:12:44;32.70;;;23.50;;
24335;SDS011;75016;52.400;16.880;2024-03-02T11:15:22;37.00;;;25.50;;
24335;SDS011;75016;52.400;16.880;2024-03-02T11:17:52;34.70;;;25.90;;
24335;SDS011;75016;52.400;16.880;2024-03-02T11:20:19;36.00;;;26.30;;
24335;SDS011;75016;52.400;16.880;2024-03-02T11:22:47;35.40;;;26.30;;
24335;SDS011;75016;52.400;16.880;2024-03-02T11:25:26;40.60;;;27.40;;
24335;SDS011;75016;52.400;16.880;2024-03-02T11:35:26;38.30;;;26.60;;
24335;SDS011;75016;52.400;16.880;2024-03-02T11:37:54;38.90;;;26.30;;
24335;SDS011;75016;52.400;16.880;2024-03-02T11:40:22;36.50;;;25.90;;
24335;SDS011;75016;52.400;16.880;2024-03-02T11:42:49;34.60;;;25.80;;
24335;SDS011;75016;52.400;16.880;2024-03-02T11:45:25;37.40;;;27.20;;
24335;SDS011;75016;52.400;16.880;2024-03-02T11:47:59;39.20;;;27.50;;
24335;SDS011;75016;52.400;16.880;2024-03-02T11:50:29;42.70;;;28.10;;
24335;SDS011;75016;52.400;16.880;2024-03-02T11:52:57;37.80;;;27.20;;
24335;SDS011;75016;52.400;16.880;2024-03-02T11:55:27;37.30;;;27.80;;
24335;SDS011;75016;52.400;16.880;2024-03-02T11:57:56;40.00;;;28.10;;
24335;SDS011;75016;52.400;16.880;2024-03-02T12:00:25;38.30;;;27.60;;
24335;SDS011;75016;52.400;16.880;2024-03-02T12:02:59;39.00;;;28.60;;
24335;SDS011;75016;52.400;16.880;2024-03-02T12:05:36;37.20;;;27.00;;
24335;SDS011;75016;52.400;16.880;2024-03-02T12:08:04;37.20;;;26.80;;
24335;SDS011;75016;52.400;16.880;2024-03-02T12:10:33;40.10;;;28.10;;
24335;SDS011;75016;52.400;16.880;2024-03-02T12:13:01;39.80;;;27.90;;
24335;SDS011;75016;52.400;16.880;2024-03-02T12:15:34;39.30;;;26.90;;
24335;SDS011;75016;52.400;16.880;2024-03-02T12:18:05;37.80;;;27.70;;
24335;SDS011;75016;52.400;16.880;2024-03-02T12:20:32;38.90;;;27.10;;
24335;SDS011;75016;52.400;16.880;2024-03-02T12:23:00;36.90;;;27.00;;
24335;SDS011;75016;52.400;16.880;2024-03-02T12:25:28;38.10;;;26.90;;
24335;SDS011;75016;52.400;16.880;2024-03-02T12:27:58;54.40;;;29.40;;
24335;SDS011;75016;52.400;16.880;2024-03-02T12:30:29;39.20;;;27.70;;
24335;SDS011;75016;52.400;16.880;2024-03-02T12:32:58;37.00;;;27.90;;
24335;SDS011;75016;52.400;16.880;2024-03-02T12:35:25;38.30;;;27.80;;
24335;SDS011;75016;52.400;16.880;2024-03-02T12:37:52;38.30;;;29.70;;
24335;SDS011;75016;52.400;16.880;2024-03-02T12:40:20;36.40;;;27.90;;
24335;SDS011;75016;52.400;16.880;2024-03-02T12:42:48;38.10;;;27.90;;
24335;SDS011;75016;52.400;16.880;2024-03-02T12:45:16;36.30;;;26.20;;
24335;SDS011;75016;52.400;16.880;2024-03-02T12:47:49;39.10;;;27.10;;
24335;SDS011;75016;52.400;16.880;2024-03-02T12:50:17;37.10;;;28.20;;
24335;SDS011;75016;52.400;16.880;2024-03-02T12:52:50;36.80;;;27.80;;
24335;SDS011;75016;52.400;16.880;2024-03-02T12:55:21;36.40;;;27.50;;
24335;SDS011;75016;52.400;16.880;2024-03-02T12:57:51;38.80;;;26.80;;
24335;SDS011;75016;52.400;16.880;2024-03-02T13:00:19;38.20;;;27.00;;
24335;SDS011;75016;52.400;16.880;2024-03-02T13:02:46;38.80;;;27.20;;
24335;SDS011;75016;52.400;16.880;2024-03-02T13:05:14;37.60;;;27.50;;
24335;SDS011;75016;52.400;16.880;2024-03-02T13:07:41;37.80;;;27.90;;
24335;SDS011;75016;52.400;16.880;2024-03-02T13:10:07;37.00;;;27.70;;
24335;SDS011;75016;52.400;16.880;2024-03-02T13:12:35;36.80;;;27.00;;
24335;SDS011;75016;52.400;16.880;2024-03-02T13:15:02;36.80;;;27.30;;
24335;SDS011;75016;52.400;16.880;2024-03-02T13:17:30;35.90;;;26.80;;
24335;SDS011;75016;52.400;16.880;2024-03-02T13:19:59;37.20;;;27.60;;
24335;SDS011;75016;52.400;16.880;2024-03-02T13:22:26;42.40;;;27.30;;
24335;SDS011;75016;52.400;16.880;2024-03-02T13:24:53;36.10;;;25.60;;
24335;SDS011;75016;52.400;16.880;2024-03-02T13:27:20;34.90;;;26.50;;
24335;SDS011;75016;52.400;16.880;2024-03-02T13:29:47;35.40;;;26.40;;
24335;SDS011;75016;52.400;16.880;2024-03-02T13:32:14;35.40;;;25.70;;
24335;SDS011;75016;52.400;16.880;2024-03-02T13:34:42;36.80;;;27.40;;
24335;SDS011;75016;52.400;16.880;2024-03-02T13:37:09;36.00;;;25.40;;
24335;SDS011;75016;52.400;16.880;2024-03-02T13:39:35;33.40;;;26.50;;
24335;SDS011;75016;52.400;16.880;2024-03-02T13:42:09;36.50;;;26.50;;
24335;SDS011;75016;52.400;16.880;2024-03-02T13:44:37;34.70;;;25.80;;
24335;SDS011;75016;52.400;16.880;2024-03-02T13:47:04;35.80;;;26.00;;
24335;SDS011;75016;52.400;16.880;2024-03-02T13:49:31;35.30;;;25.90;;
24335;SDS011;75016;52.400;16.880;2024-03-02T13:52:05;33.30;;;25.40;;
24335;SDS011;75016;52.400;16.880;2024-03-02T13:54:43;32.00;;;24.20;;
24335;SDS011;75016;52.400;16.880;2024-03-02T13:57:11;34.10;;;24.50;;
24335;SDS011;75016;52.400;16.880;2024-03-02T13:59:38;34.20;;;24.50;;
24335;SDS011;75016;52.400;16.880;2024-03-02T14:02:06;31.90;;;24.60;;
24335;SDS011;75016;52.400;16.880;2024-03-02T14:04:36;34.70;;;24.40;;
24335;SDS011;75016;52.400;16.880;2024-03-02T14:07:03;34.40;;;24.00;;
24335;SDS011;75016;52.400;16.880;2024-03-02T14:09:33;37.00;;;25.30;;
24335;SDS011;75016;52.400;16.880;2024-03-02T14:11:59;31.70;;;24.30;;
24335;SDS011;75016;52.400;16.880;2024-03-02T14:14:29;32.90;;;24.20;;
24335;SDS011;75016;52.400;16.880;2024-03-02T14:16:55;32.30;;;23.30;;
24335;SDS011;75016;52.400;16.880;2024-03-02T14:19:22;33.00;;;23.50;;
24335;SDS011;75016;52.400;16.880;2024-03-02T14:21:49;35.90;;;24.60;;
24335;SDS011;75016;52.400;16.880;2024-03-02T14:24:16;33.90;;;23.80;;
24335;SDS011;75016;52.400;16.880;2024-03-02T14:26:42;32.90;;;23.70;;
24335;SDS011;75016;52.400;16.880;2024-03-02T14:29:09;29.20;;;22.70;;